createdAt,value
2023-11-13T00:02:22.102Z,13.07
2023-11-13T00:05:24.090Z,16.05
2023-11-13T00:08:26.292Z,12.27
2023-11-13T00:11:28.226Z,12.10
2023-11-13T00:14:30.519Z,14.27
2023-11-13T00:17:32.596Z,14.88
2023-11-13T00:20:34.480Z,15.50
2023-11-13T00:23:39.049Z,13.32
2023-11-13T00:26:41.052Z,13.48
2023-11-13T00:29:42.892Z,18.52
2023-11-13T00:32:44.790Z,15.40
2023-11-13T00:35:46.825Z,14.05
2023-11-13T00:38:48.776Z,14.43
2023-11-13T00:41:50.808Z,15.07
2023-11-13T00:44:52.730Z,13.68
2023-11-13T00:47:54.869Z,14.75
2023-11-13T00:50:57.336Z,16.52
2023-11-13T00:53:59.209Z,16.23
2023-11-13T00:57:01.262Z,14.68
2023-11-13T01:00:05.413Z,14.95
2023-11-13T01:03:07.621Z,13.13
2023-11-13T01:06:15.738Z,14.07
2023-11-13T01:09:17.622Z,15.20
2023-11-13T01:12:21.845Z,20.10
2023-11-13T01:15:24.199Z,25.58
2023-11-13T01:18:26.151Z,22.77
2023-11-13T01:21:28.489Z,25.23
2023-11-13T01:24:30.411Z,22.13
2023-11-13T01:27:32.375Z,19.52
2023-11-13T01:30:34.366Z,15.57
2023-11-13T01:33:36.296Z,16.63
2023-11-13T01:36:38.773Z,14.40
2023-11-13T01:39:40.776Z,14.15
2023-11-13T01:42:42.696Z,13.68
2023-11-13T01:45:45.459Z,14.25
2023-11-13T01:48:47.474Z,15.43
2023-11-13T01:51:50.693Z,15.85
2023-11-13T01:54:52.703Z,14.50
2023-11-13T01:57:54.745Z,15.50
2023-11-13T02:00:57.018Z,14.57
2023-11-13T02:03:59.101Z,16.50
2023-11-13T02:07:01.631Z,14.50
2023-11-13T02:10:06.150Z,16.35
2023-11-13T02:13:11.919Z,19.40
2023-11-13T02:16:14.155Z,16.67
2023-11-13T02:19:19.294Z,20.10
2023-11-13T02:22:21.529Z,16.88
2023-11-13T02:25:25.662Z,22.10
2023-11-13T02:28:28.294Z,17.92
2023-11-13T02:31:31.247Z,12.55
2023-11-13T02:34:33.343Z,14.45
2023-11-13T02:37:35.258Z,13.25
2023-11-13T02:40:37.099Z,14.20
2023-11-13T02:43:39.011Z,13.43
2023-11-13T02:46:41.323Z,15.85
2023-11-13T02:49:44.119Z,12.82
2023-11-13T02:52:46.398Z,14.30
2023-11-13T02:55:50.519Z,14.32
2023-11-13T02:58:52.630Z,14.30
2023-11-13T03:01:54.753Z,12.85
2023-11-13T03:04:56.854Z,13.65
2023-11-13T03:07:59.076Z,13.10
2023-11-13T03:11:01.191Z,13.20
2023-11-13T03:14:03.190Z,14.48
2023-11-13T03:17:05.599Z,13.65
2023-11-13T03:20:08.323Z,15.20
2023-11-13T03:23:10.788Z,14.13
2023-11-13T03:26:12.828Z,14.85
2023-11-13T03:29:14.825Z,14.13
2023-11-13T03:32:19.216Z,14.80
2023-11-13T03:35:21.383Z,12.90
2023-11-13T03:38:23.390Z,13.32
2023-11-13T03:41:25.931Z,14.90
2023-11-13T03:44:28.907Z,12.38
2023-11-13T03:47:30.871Z,13.57
2023-11-13T03:50:32.900Z,13.73
2023-11-13T03:53:35.882Z,13.10
2023-11-13T03:56:37.929Z,14.15
2023-11-13T03:59:39.892Z,14.40
2023-11-13T04:02:41.907Z,17.42
2023-11-13T04:05:43.897Z,19.75
2023-11-13T04:08:46.453Z,18.73
2023-11-13T04:11:48.378Z,23.65
2023-11-13T04:14:50.413Z,17.45
2023-11-13T04:17:53.045Z,16.00
2023-11-13T04:20:55.982Z,13.20
2023-11-13T04:23:57.981Z,14.32
2023-11-13T04:26:59.995Z,12.70
2023-11-13T04:30:02.201Z,14.55
2023-11-13T04:33:04.263Z,12.70
2023-11-13T04:36:07.014Z,14.98
2023-11-13T04:39:10.856Z,13.90
2023-11-13T04:42:12.967Z,14.82
2023-11-13T04:45:14.954Z,15.57
2023-11-13T04:48:16.882Z,16.25
2023-11-13T04:51:18.748Z,18.00
2023-11-13T04:54:20.759Z,15.93
2023-11-13T04:57:22.769Z,18.45
2023-11-13T05:00:24.631Z,21.83
2023-11-13T05:03:26.688Z,17.50
2023-11-13T05:06:28.683Z,16.95
2023-11-13T05:09:30.585Z,19.38
2023-11-13T05:12:32.529Z,16.77
2023-11-13T05:15:34.445Z,16.63
2023-11-13T05:18:36.745Z,34.15
2023-11-13T05:21:39.524Z,21.33
2023-11-13T05:24:42.318Z,21.17
2023-11-13T05:27:44.434Z,20.83
2023-11-13T05:30:46.336Z,19.48
2023-11-13T05:33:49.282Z,20.08
2023-11-13T05:36:51.358Z,16.17
2023-11-13T05:39:55.064Z,21.73
2023-11-13T05:42:56.995Z,15.68
2023-11-13T05:45:59.132Z,15.15
2023-11-13T05:49:01.303Z,15.60
2023-11-13T05:52:03.374Z,17.40
2023-11-13T05:55:07.005Z,14.55
2023-11-13T05:58:09.024Z,13.18
2023-11-13T06:01:11.097Z,14.98
2023-11-13T06:04:13.316Z,13.38
2023-11-13T06:07:15.587Z,11.88
2023-11-13T06:10:17.641Z,16.27
2023-11-13T06:13:19.665Z,13.48
2023-11-13T06:16:22.222Z,16.45
2023-11-13T06:19:24.866Z,16.88
2023-11-13T06:22:28.265Z,18.90
2023-11-13T06:25:30.911Z,20.13
2023-11-13T06:28:32.856Z,29.58
2023-11-13T06:31:35.794Z,20.88
2023-11-13T06:34:37.794Z,22.17
2023-11-13T06:37:42.533Z,20.52
2023-11-13T06:40:44.422Z,22.67
2023-11-13T06:43:46.826Z,24.15
2023-11-13T06:46:48.977Z,16.73
2023-11-13T06:49:51.034Z,15.13
2023-11-13T06:52:54.567Z,15.02
2023-11-13T06:55:56.535Z,16.60
2023-11-13T06:58:58.435Z,20.77
2023-11-13T07:02:01.972Z,16.08
2023-11-13T07:05:06.296Z,14.52
2023-11-13T07:08:11.131Z,18.83
2023-11-13T07:11:16.182Z,17.40
2023-11-13T07:14:18.269Z,16.23
2023-11-13T07:17:20.187Z,13.13
2023-11-13T07:20:22.885Z,15.35
2023-11-13T07:23:24.731Z,15.07
2023-11-13T07:26:27.641Z,14.15
2023-11-13T07:29:31.384Z,14.23
2023-11-13T07:32:33.453Z,14.45
2023-11-13T07:35:39.382Z,16.80
2023-11-13T07:38:44.056Z,15.13
2023-11-13T07:41:46.070Z,14.60
2023-11-13T07:44:50.940Z,17.42
2023-11-13T07:47:57.731Z,15.88
2023-11-13T07:50:59.759Z,14.40
2023-11-13T07:54:02.052Z,14.90
2023-11-13T07:57:05.360Z,14.55
2023-11-13T08:00:11.543Z,17.80
2023-11-13T08:03:17.846Z,15.55
2023-11-13T08:06:19.836Z,15.10
2023-11-13T08:09:21.989Z,14.90
2023-11-13T08:12:24.599Z,14.35
2023-11-13T08:15:26.964Z,17.17
2023-11-13T08:18:29.448Z,18.42
2023-11-13T08:21:32.653Z,19.98
2023-11-13T08:24:34.557Z,18.90
2023-11-13T08:27:39.806Z,19.88
2023-11-13T08:30:47.896Z,18.40
2023-11-13T08:33:49.831Z,17.42
2023-11-13T08:36:52.171Z,14.82
2023-11-13T08:39:54.402Z,15.50
2023-11-13T08:43:00.228Z,16.05
2023-11-13T08:46:05.418Z,14.65
2023-11-13T08:49:09.235Z,10.60
2023-11-13T08:52:11.731Z,10.23
2023-11-13T08:55:18.480Z,11.50
2023-11-13T08:58:20.711Z,13.88
2023-11-13T09:01:27.321Z,13.63
2023-11-13T09:04:29.428Z,12.30
2023-11-13T09:07:32.715Z,13.68
2023-11-13T09:10:34.732Z,15.95
2023-11-13T09:13:37.581Z,15.43
2023-11-13T09:16:42.306Z,11.77
2023-11-13T09:19:44.369Z,10.05
2023-11-13T09:22:50.223Z,11.57
2023-11-13T09:25:52.209Z,11.02
2023-11-13T09:28:56.284Z,12.35
2023-11-13T09:31:58.912Z,11.05
2023-11-13T09:35:01.108Z,11.45
2023-11-13T09:38:03.671Z,13.25
2023-11-13T09:41:10.207Z,12.20
2023-11-13T09:44:13.183Z,14.50
2023-11-13T09:47:22.807Z,12.30
2023-11-13T09:50:24.960Z,10.70
2023-11-13T09:53:30.926Z,11.48
2023-11-13T09:56:34.037Z,14.50
2023-11-13T09:59:39.087Z,13.00
2023-11-13T10:02:43.302Z,12.15
2023-11-13T10:05:45.928Z,12.82
2023-11-13T10:08:48.630Z,12.85
2023-11-13T10:11:50.916Z,13.50
2023-11-13T10:15:09.221Z,12.40
2023-11-13T10:18:14.027Z,13.38
2023-11-13T10:21:34.781Z,13.13
2023-11-13T10:24:43.986Z,13.32
2023-11-13T10:28:01.152Z,12.43
2023-11-13T10:31:06.219Z,11.13
2023-11-13T10:34:10.900Z,13.73
2023-11-13T10:37:14.696Z,11.45
2023-11-13T10:40:28.246Z,9.90
2023-11-13T10:43:35.292Z,7.85
2023-11-13T10:46:37.730Z,10.27
2023-11-13T10:49:40.820Z,9.43
2023-11-13T10:52:45.116Z,8.55
2023-11-13T10:55:48.759Z,7.10
2023-11-13T10:58:50.987Z,7.43
2023-11-13T11:01:58.794Z,7.65
2023-11-13T11:05:04.253Z,9.32
2023-11-13T11:08:06.694Z,7.13
2023-11-13T11:11:18.923Z,7.57
2023-11-13T11:14:51.341Z,8.52
2023-11-13T11:18:13.776Z,10.07
2023-11-13T11:21:36.835Z,8.50
2023-11-13T11:24:58.823Z,7.95
2023-11-13T11:28:01.155Z,8.05
2023-11-13T11:31:05.921Z,7.93
2023-11-13T11:34:08.675Z,7.20
2023-11-13T11:37:16.530Z,9.60
2023-11-13T11:40:32.587Z,12.57
2023-11-13T11:43:40.029Z,8.10
2023-11-13T11:47:00.210Z,7.93
2023-11-13T11:50:14.129Z,7.63
2023-11-13T11:53:20.608Z,7.25
2023-11-13T11:56:24.881Z,7.25
2023-11-13T11:59:28.861Z,7.47
2023-11-13T12:02:32.315Z,7.72
2023-11-13T12:05:35.230Z,6.97
2023-11-13T12:08:41.543Z,9.85
2023-11-13T12:11:44.399Z,8.60
2023-11-13T12:14:46.474Z,8.30
2023-11-13T12:17:48.570Z,8.00
2023-11-13T12:20:50.710Z,8.65
2023-11-13T12:23:54.218Z,6.40
2023-11-13T12:26:58.090Z,6.43
2023-11-13T12:30:07.453Z,7.53
2023-11-13T12:33:11.018Z,5.90
2023-11-13T12:36:14.819Z,6.10
2023-11-13T12:39:18.588Z,5.03
2023-11-13T12:42:21.385Z,5.53
2023-11-13T12:45:23.692Z,6.43
2023-11-13T12:48:25.574Z,6.07
2023-11-13T12:51:30.338Z,12.15
2023-11-13T12:54:33.497Z,5.95
2023-11-13T12:57:38.634Z,7.97
2023-11-13T13:00:42.025Z,7.32
2023-11-13T13:03:46.054Z,7.75
2023-11-13T13:06:49.938Z,6.13
2023-11-13T13:09:52.945Z,7.18
2023-11-13T13:12:55.274Z,5.88
2023-11-13T13:15:57.340Z,6.10
2023-11-13T13:18:59.992Z,6.45
2023-11-13T13:22:08.862Z,8.07
2023-11-13T13:25:12.380Z,6.00
2023-11-13T13:28:14.529Z,9.13
2023-11-13T13:31:16.893Z,8.25
2023-11-13T13:34:20.027Z,7.45
2023-11-13T13:37:24.933Z,7.50
2023-11-13T13:40:28.353Z,6.70
2023-11-13T13:43:30.634Z,6.85
2023-11-13T13:46:33.197Z,7.13
2023-11-13T13:49:35.497Z,7.32
2023-11-13T13:52:47.858Z,10.30
2023-11-13T13:55:49.824Z,7.20
2023-11-13T13:58:51.960Z,15.70
2023-11-13T14:01:53.951Z,7.07
2023-11-13T14:04:55.974Z,12.93
2023-11-13T14:07:58.090Z,10.65
2023-11-13T14:11:01.280Z,12.05
2023-11-13T14:14:03.218Z,17.70
2023-11-13T14:17:05.347Z,10.70
2023-11-13T14:20:16.841Z,13.20
2023-11-13T14:23:19.515Z,13.88
2023-11-13T14:26:21.440Z,13.27
2023-11-13T14:29:23.357Z,13.35
2023-11-13T14:32:25.507Z,16.20
2023-11-13T14:35:27.804Z,21.10
2023-11-13T14:38:31.278Z,15.25
2023-11-13T14:41:34.574Z,16.38
2023-11-13T14:44:36.999Z,13.48
2023-11-13T14:47:42.472Z,15.80
2023-11-13T14:50:45.581Z,16.95
2023-11-13T14:53:48.583Z,23.17
2023-11-13T14:56:50.453Z,14.82
2023-11-13T14:59:52.823Z,14.55
2023-11-13T15:02:54.985Z,17.98
2023-11-13T15:05:59.056Z,17.15
2023-11-13T15:09:01.652Z,15.27
2023-11-13T15:12:04.524Z,15.07
2023-11-13T15:15:09.458Z,22.52
2023-11-13T15:18:12.121Z,31.80
2023-11-13T15:21:14.516Z,37.15
2023-11-13T15:24:17.046Z,28.80
2023-11-13T15:27:21.218Z,25.83
2023-11-13T15:30:23.961Z,20.83
2023-11-13T15:33:25.955Z,26.65
2023-11-13T15:36:29.405Z,26.02
2023-11-13T15:39:31.360Z,26.60
2023-11-13T15:42:34.346Z,20.65
2023-11-13T15:45:37.367Z,16.88
2023-11-13T15:48:39.950Z,24.90
2023-11-13T15:51:42.389Z,20.05
2023-11-13T15:54:44.921Z,23.58
2023-11-13T15:57:46.925Z,22.33
2023-11-13T16:00:49.029Z,22.10
2023-11-13T16:03:51.068Z,30.02
2023-11-13T16:06:54.342Z,27.85
2023-11-13T16:09:56.349Z,26.08
2023-11-13T16:12:58.419Z,23.42
2023-11-13T16:16:00.507Z,30.45
2023-11-13T16:19:03.504Z,32.53
2023-11-13T16:22:05.668Z,31.08
2023-11-13T16:25:09.161Z,25.95
2023-11-13T16:28:11.522Z,32.38
2023-11-13T16:31:13.805Z,23.75
2023-11-13T16:34:16.106Z,18.70
2023-11-13T16:37:18.390Z,21.80
2023-11-13T16:40:21.869Z,21.02
2023-11-13T16:43:29.873Z,20.90
2023-11-13T16:46:34.377Z,27.33
2023-11-13T16:49:36.463Z,23.15
2023-11-13T16:52:39.510Z,21.40
2023-11-13T16:55:41.745Z,27.65
2023-11-13T16:58:43.654Z,20.58
2023-11-13T17:01:46.212Z,21.15
2023-11-13T17:04:48.703Z,22.08
2023-11-13T17:07:50.924Z,20.35
2023-11-13T17:10:55.861Z,15.95
2023-11-13T17:13:58.039Z,18.85
2023-11-13T17:17:00.188Z,18.52
2023-11-13T17:20:04.966Z,19.15
2023-11-13T17:23:11.826Z,22.60
2023-11-13T17:26:13.977Z,19.92
2023-11-13T17:29:15.869Z,23.88
2023-11-13T17:32:18.026Z,17.63
2023-11-13T17:35:21.512Z,21.05
2023-11-13T17:38:24.893Z,14.77
2023-11-13T17:41:27.184Z,20.88
2023-11-13T17:44:29.413Z,19.50
2023-11-13T17:47:31.670Z,22.75
2023-11-13T17:50:33.691Z,24.60
2023-11-13T17:53:35.534Z,24.23
2023-11-13T17:56:37.565Z,23.17
2023-11-13T17:59:43.030Z,24.55
2023-11-13T18:02:46.014Z,24.98
2023-11-13T18:05:49.724Z,22.90
2023-11-13T18:08:52.897Z,23.70
2023-11-13T18:11:55.714Z,22.33
2023-11-13T18:14:59.128Z,27.55
2023-11-13T18:18:02.269Z,24.60
2023-11-13T18:21:05.278Z,26.33
2023-11-13T18:24:13.131Z,23.23
2023-11-13T18:27:17.169Z,25.25
2023-11-13T18:30:20.599Z,23.60
2023-11-13T18:33:22.583Z,26.67
2023-11-13T18:36:25.599Z,26.00
2023-11-13T18:39:27.896Z,20.67
2023-11-13T18:42:30.199Z,21.23
2023-11-13T18:45:33.057Z,20.38
2023-11-13T18:48:35.066Z,21.60
2023-11-13T18:51:37.461Z,21.85
2023-11-13T18:54:39.408Z,14.48
2023-11-13T18:57:41.356Z,15.68
2023-11-13T19:00:43.697Z,15.15
2023-11-13T19:03:46.758Z,14.52
2023-11-13T19:06:49.007Z,13.15
2023-11-13T19:09:52.361Z,16.20
2023-11-13T19:12:54.525Z,24.48
2023-11-13T19:15:57.762Z,12.15
2023-11-13T19:18:59.738Z,11.68
2023-11-13T19:22:03.662Z,12.57
2023-11-13T19:25:10.169Z,11.73
2023-11-13T19:28:12.215Z,12.35
2023-11-13T19:31:14.108Z,12.75
2023-11-13T19:34:18.292Z,13.95
2023-11-13T19:37:20.956Z,12.93
2023-11-13T19:40:24.859Z,12.48
2023-11-13T19:43:26.758Z,16.02
2023-11-13T19:46:28.695Z,15.48
2023-11-13T19:49:31.576Z,11.65
2023-11-13T19:52:41.999Z,15.95
2023-11-13T19:55:49.110Z,19.77
2023-11-13T19:58:51.812Z,18.73
2023-11-13T20:01:53.991Z,17.40
2023-11-13T20:04:56.206Z,23.20
2023-11-13T20:07:59.094Z,16.88
2023-11-13T20:11:01.041Z,17.58
2023-11-13T20:14:03.227Z,15.40
2023-11-13T20:17:08.295Z,16.08
2023-11-13T20:20:11.301Z,12.40
2023-11-13T20:23:14.965Z,14.05
2023-11-13T20:26:16.905Z,13.15
2023-11-13T20:29:19.646Z,14.70
2023-11-13T20:32:21.750Z,16.45
2023-11-13T20:35:24.680Z,16.20
2023-11-13T20:38:27.849Z,14.50
2023-11-13T20:41:29.896Z,16.17
2023-11-13T20:44:31.967Z,14.32
2023-11-13T20:47:37.415Z,13.25
2023-11-13T20:50:39.912Z,13.88
2023-11-13T20:53:41.889Z,15.00
2023-11-13T20:56:45.877Z,13.00
2023-11-13T20:59:47.760Z,14.73
2023-11-13T21:02:49.815Z,14.52
2023-11-13T21:06:02.386Z,13.48
2023-11-13T21:09:09.758Z,14.85
2023-11-13T21:12:11.699Z,14.10
2023-11-13T21:15:14.122Z,16.40
2023-11-13T21:18:16.030Z,14.00
2023-11-13T21:21:17.965Z,13.15
2023-11-13T21:24:20.455Z,12.10
2023-11-13T21:27:22.340Z,13.02
2023-11-13T21:30:24.870Z,15.20
2023-11-13T21:33:26.951Z,12.38
2023-11-13T21:36:28.900Z,13.73
2023-11-13T21:39:31.351Z,13.90
2023-11-13T21:42:33.280Z,13.07
2023-11-13T21:45:35.677Z,14.63
2023-11-13T21:48:37.708Z,13.40
2023-11-13T21:51:39.597Z,13.65
2023-11-13T21:54:41.525Z,13.60
2023-11-13T21:57:43.664Z,15.05
2023-11-13T22:00:45.609Z,14.00
2023-11-13T22:03:47.696Z,17.90
2023-11-13T22:06:50.083Z,15.30
2023-11-13T22:09:51.975Z,15.77
2023-11-13T22:12:53.914Z,13.85
2023-11-13T22:15:56.989Z,17.35
2023-11-13T22:18:58.859Z,14.63
2023-11-13T22:22:00.714Z,14.88
2023-11-13T22:25:02.876Z,12.88
2023-11-13T22:28:04.874Z,14.13
2023-11-13T22:31:08.433Z,14.98
2023-11-13T22:34:10.960Z,12.10
2023-11-13T22:37:14.560Z,14.02
2023-11-13T22:40:16.526Z,14.32
2023-11-13T22:43:18.542Z,16.70
2023-11-13T22:46:21.073Z,13.82
2023-11-13T22:49:23.216Z,16.65
2023-11-13T22:52:25.243Z,16.65
2023-11-13T22:55:27.293Z,15.68
2023-11-13T22:58:29.225Z,15.57
2023-11-13T23:01:31.356Z,14.73
2023-11-13T23:04:34.741Z,17.02
2023-11-13T23:07:38.060Z,19.67
2023-11-13T23:10:40.104Z,17.90
2023-11-13T23:13:42.385Z,16.05
2023-11-13T23:17:08.562Z,20.42
2023-11-13T23:20:10.833Z,15.82
2023-11-13T23:23:12.946Z,12.73
2023-11-13T23:26:14.894Z,16.08
2023-11-13T23:29:16.817Z,16.27
2023-11-13T23:32:19.166Z,17.77
2023-11-13T23:35:21.375Z,15.80
2023-11-13T23:38:25.369Z,19.90
2023-11-13T23:41:27.291Z,19.60
2023-11-13T23:44:29.259Z,19.70
2023-11-13T23:47:34.701Z,18.60
2023-11-13T23:50:36.752Z,20.75
2023-11-13T23:53:39.242Z,18.38
2023-11-13T23:56:41.139Z,18.75
2023-11-13T23:59:44.065Z,19.42
